sensor_id;sensor_type;location;lat;lon;timestamp;P1;durP1;ratioP1;P2;durP2;ratioP2
3873;SDS011;1952;50.872;6.692;2023-04-08T00:29:46;13.00;;;7.57;;
3873;SDS011;1952;50.872;6.692;2023-04-08T00:32:14;13.70;;;10.13;;
3873;SDS011;1952;50.872;6.692;2023-04-08T00:34:42;21.17;;;11.30;;
3873;SDS011;1952;50.872;6.692;2023-04-08T00:37:11;11.23;;;9.93;;
3873;SDS011;1952;50.872;6.692;2023-04-08T00:39:38;13.67;;;9.80;;
3873;SDS011;1952;50.872;6.692;2023-04-08T00:42:07;15.80;;;9.63;;
3873;SDS011;1952;50.872;6.692;2023-04-08T00:44:35;11.07;;;9.70;;
3873;SDS011;1952;50.872;6.692;2023-04-08T00:47:04;13.40;;;9.70;;
3873;SDS011;1952;50.872;6.692;2023-04-08T00:49:33;13.23;;;9.27;;
3873;SDS011;1952;50.872;6.692;2023-04-08T00:52:01;16.00;;;11.10;;
3873;SDS011;1952;50.872;6.692;2023-04-08T00:54:29;15.23;;;9.57;;
3873;SDS011;1952;50.872;6.692;2023-04-08T00:56:57;19.10;;;10.70;;
3873;SDS011;1952;50.872;6.692;2023-04-08T00:59:26;15.60;;;9.20;;
3873;SDS011;1952;50.872;6.692;2023-04-08T01:01:56;13.13;;;8.23;;
3873;SDS011;1952;50.872;6.692;2023-04-08T01:04:30;14.30;;;9.17;;
3873;SDS011;1952;50.872;6.692;2023-04-08T01:07:02;16.07;;;11.70;;
3873;SDS011;1952;50.872;6.692;2023-04-08T01:09:34;13.13;;;9.40;;
3873;SDS011;1952;50.872;6.692;2023-04-08T01:12:05;11.87;;;8.47;;
3873;SDS011;1952;50.872;6.692;2023-04-08T01:14:37;17.07;;;11.40;;
3873;SDS011;1952;50.872;6.692;2023-04-08T01:17:08;21.00;;;11.90;;
3873;SDS011;1952;50.872;6.692;2023-04-08T01:19:38;19.37;;;12.70;;
3873;SDS011;1952;50.872;6.692;2023-04-08T01:22:11;11.93;;;10.20;;
3873;SDS011;1952;50.872;6.692;2023-04-08T01:24:39;12.00;;;10.20;;
3873;SDS011;1952;50.872;6.692;2023-04-08T01:27:11;22.40;;;12.57;;
3873;SDS011;1952;50.872;6.692;2023-04-08T01:29:39;14.83;;;11.03;;
3873;SDS011;1952;50.872;6.692;2023-04-08T01:32:08;16.30;;;10.23;;
3873;SDS011;1952;50.872;6.692;2023-04-08T01:34:37;22.37;;;11.70;;
3873;SDS011;1952;50.872;6.692;2023-04-08T01:37:07;23.87;;;12.60;;
3873;SDS011;1952;50.872;6.692;2023-04-08T01:39:36;14.43;;;10.73;;
3873;SDS011;1952;50.872;6.692;2023-04-08T01:42:06;16.63;;;10.97;;
3873;SDS011;1952;50.872;6.692;2023-04-08T01:44:36;20.50;;;12.83;;
3873;SDS011;1952;50.872;6.692;2023-04-08T01:47:05;19.30;;;13.23;;
3873;SDS011;1952;50.872;6.692;2023-04-08T01:49:33;15.13;;;11.30;;
3873;SDS011;1952;50.872;6.692;2023-04-08T01:52:02;17.73;;;11.60;;
3873;SDS011;1952;50.872;6.692;2023-04-08T01:54:31;16.43;;;11.50;;
3873;SDS011;1952;50.872;6.692;2023-04-08T01:57:00;18.37;;;12.67;;
3873;SDS011;1952;50.872;6.692;2023-04-08T01:59:30;20.37;;;14.03;;
3873;SDS011;1952;50.872;6.692;2023-04-08T02:02:00;18.03;;;12.10;;
3873;SDS011;1952;50.872;6.692;2023-04-08T02:04:29;21.00;;;11.93;;
3873;SDS011;1952;50.872;6.692;2023-04-08T02:06:57;20.50;;;13.20;;
3873;SDS011;1952;50.872;6.692;2023-04-08T02:09:26;17.87;;;12.73;;
3873;SDS011;1952;50.872;6.692;2023-04-08T02:11:54;19.50;;;13.70;;
3873;SDS011;1952;50.872;6.692;2023-04-08T02:14:23;19.00;;;13.00;;
3873;SDS011;1952;50.872;6.692;2023-04-08T02:16:52;16.60;;;13.70;;
3873;SDS011;1952;50.872;6.692;2023-04-08T02:19:24;17.03;;;12.23;;
3873;SDS011;1952;50.872;6.692;2023-04-08T02:21:54;20.77;;;12.97;;
3873;SDS011;1952;50.872;6.692;2023-04-08T02:24:25;17.40;;;14.03;;
3873;SDS011;1952;50.872;6.692;2023-04-08T02:26:55;15.40;;;12.33;;
3873;SDS011;1952;50.872;6.692;2023-04-08T02:29:23;21.20;;;13.60;;
3873;SDS011;1952;50.872;6.692;2023-04-08T02:31:56;19.80;;;12.33;;
3873;SDS011;1952;50.872;6.692;2023-04-08T02:34:26;15.20;;;12.40;;
3873;SDS011;1952;50.872;6.692;2023-04-08T02:36:54;16.13;;;11.27;;
3873;SDS011;1952;50.872;6.692;2023-04-08T02:39:29;14.83;;;10.00;;
3873;SDS011;1952;50.872;6.692;2023-04-08T02:41:58;17.83;;;14.13;;
3873;SDS011;1952;50.872;6.692;2023-04-08T02:44:26;20.10;;;15.30;;
3873;SDS011;1952;50.872;6.692;2023-04-08T02:46:54;23.83;;;12.20;;
3873;SDS011;1952;50.872;6.692;2023-04-08T02:49:22;30.33;;;14.80;;
3873;SDS011;1952;50.872;6.692;2023-04-08T02:51:52;18.30;;;12.67;;
3873;SDS011;1952;50.872;6.692;2023-04-08T02:54:20;17.20;;;12.30;;
3873;SDS011;1952;50.872;6.692;2023-04-08T02:56:48;20.80;;;15.57;;
3873;SDS011;1952;50.872;6.692;2023-04-08T02:59:16;19.43;;;13.43;;
3873;SDS011;1952;50.872;6.692;2023-04-08T03:01:45;23.70;;;13.97;;
3873;SDS011;1952;50.872;6.692;2023-04-08T03:04:13;17.30;;;13.37;;
3873;SDS011;1952;50.872;6.692;2023-04-08T03:06:41;22.63;;;14.07;;
3873;SDS011;1952;50.872;6.692;2023-04-08T03:09:11;27.80;;;17.57;;
3873;SDS011;1952;50.872;6.692;2023-04-08T03:11:39;15.77;;;12.97;;
3873;SDS011;1952;50.872;6.692;2023-04-08T03:14:07;27.93;;;15.70;;
3873;SDS011;1952;50.872;6.692;2023-04-08T03:16:35;26.00;;;17.20;;
3873;SDS011;1952;50.872;6.692;2023-04-08T03:19:03;22.57;;;15.37;;
3873;SDS011;1952;50.872;6.692;2023-04-08T03:21:31;22.80;;;14.53;;
3873;SDS011;1952;50.872;6.692;2023-04-08T03:23:59;23.90;;;14.53;;
3873;SDS011;1952;50.872;6.692;2023-04-08T03:26:29;19.53;;;13.93;;
3873;SDS011;1952;50.872;6.692;2023-04-08T03:28:57;27.87;;;16.73;;
3873;SDS011;1952;50.872;6.692;2023-04-08T03:31:26;17.60;;;12.90;;
3873;SDS011;1952;50.872;6.692;2023-04-08T03:33:54;25.93;;;18.47;;
3873;SDS011;1952;50.872;6.692;2023-04-08T03:36:23;19.37;;;14.30;;
3873;SDS011;1952;50.872;6.692;2023-04-08T03:38:51;26.03;;;16.70;;
3873;SDS011;1952;50.872;6.692;2023-04-08T03:41:20;25.47;;;18.07;;
3873;SDS011;1952;50.872;6.692;2023-04-08T03:43:49;24.20;;;14.77;;
3873;SDS011;1952;50.872;6.692;2023-04-08T03:46:18;17.97;;;12.93;;
3873;SDS011;1952;50.872;6.692;2023-04-08T03:48:47;21.43;;;14.23;;
3873;SDS011;1952;50.872;6.692;2023-04-08T03:51:16;22.97;;;15.17;;
3873;SDS011;1952;50.872;6.692;2023-04-08T03:53:44;24.37;;;14.27;;
3873;SDS011;1952;50.872;6.692;2023-04-08T03:56:13;23.93;;;14.57;;
3873;SDS011;1952;50.872;6.692;2023-04-08T03:58:41;19.37;;;13.40;;
3873;SDS011;1952;50.872;6.692;2023-04-08T04:01:11;17.43;;;13.20;;
3873;SDS011;1952;50.872;6.692;2023-04-08T04:03:39;18.00;;;13.10;;
3873;SDS011;1952;50.872;6.692;2023-04-08T04:06:07;25.40;;;14.10;;
3873;SDS011;1952;50.872;6.692;2023-04-08T04:08:36;26.77;;;15.10;;
3873;SDS011;1952;50.872;6.692;2023-04-08T04:11:04;18.47;;;13.00;;
3873;SDS011;1952;50.872;6.692;2023-04-08T04:13:32;27.47;;;16.27;;
3873;SDS011;1952;50.872;6.692;2023-04-08T04:16:01;20.23;;;13.27;;
3873;SDS011;1952;50.872;6.692;2023-04-08T04:18:30;23.03;;;13.73;;
3873;SDS011;1952;50.872;6.692;2023-04-08T04:20:59;21.90;;;14.97;;
3873;SDS011;1952;50.872;6.692;2023-04-08T04:23:27;18.00;;;13.03;;
3873;SDS011;1952;50.872;6.692;2023-04-08T04:25:55;16.30;;;12.20;;
3873;SDS011;1952;50.872;6.692;2023-04-08T04:28:24;20.33;;;13.47;;
3873;SDS011;1952;50.872;6.692;2023-04-08T04:30:52;27.97;;;16.33;;
3873;SDS011;1952;50.872;6.692;2023-04-08T04:33:22;20.03;;;15.00;;
3873;SDS011;1952;50.872;6.692;2023-04-08T04:35:51;19.57;;;14.50;;
3873;SDS011;1952;50.872;6.692;2023-04-08T04:38:20;27.37;;;18.40;;
3873;SDS011;1952;50.872;6.692;2023-04-08T04:40:48;27.00;;;16.30;;
3873;SDS011;1952;50.872;6.692;2023-04-08T04:43:16;22.40;;;16.30;;
3873;SDS011;1952;50.872;6.692;2023-04-08T04:45:45;26.77;;;16.67;;
3873;SDS011;1952;50.872;6.692;2023-04-08T04:48:13;25.13;;;16.20;;
3873;SDS011;1952;50.872;6.692;2023-04-08T04:50:41;29.07;;;14.83;;
3873;SDS011;1952;50.872;6.692;2023-04-08T04:53:11;23.60;;;16.43;;
3873;SDS011;1952;50.872;6.692;2023-04-08T04:55:39;22.87;;;14.80;;
3873;SDS011;1952;50.872;6.692;2023-04-08T04:58:08;25.80;;;15.70;;
3873;SDS011;1952;50.872;6.692;2023-04-08T05:00:36;25.30;;;16.30;;
3873;SDS011;1952;50.872;6.692;2023-04-08T05:03:05;23.60;;;13.30;;
3873;SDS011;1952;50.872;6.692;2023-04-08T05:05:33;20.87;;;14.87;;
3873;SDS011;1952;50.872;6.692;2023-04-08T05:08:01;21.90;;;14.77;;
3873;SDS011;1952;50.872;6.692;2023-04-08T05:10:31;21.50;;;15.70;;
3873;SDS011;1952;50.872;6.692;2023-04-08T05:13:00;21.20;;;13.57;;
3873;SDS011;1952;50.872;6.692;2023-04-08T05:15:28;21.13;;;13.53;;
3873;SDS011;1952;50.872;6.692;2023-04-08T05:17:56;24.50;;;14.60;;
3873;SDS011;1952;50.872;6.692;2023-04-08T05:20:24;19.63;;;14.60;;
3873;SDS011;1952;50.872;6.692;2023-04-08T05:22:53;23.13;;;14.60;;
3873;SDS011;1952;50.872;6.692;2023-04-08T05:25:21;25.30;;;14.37;;
3873;SDS011;1952;50.872;6.692;2023-04-08T05:27:50;23.03;;;15.67;;
3873;SDS011;1952;50.872;6.692;2023-04-08T05:30:19;28.77;;;16.00;;
3873;SDS011;1952;50.872;6.692;2023-04-08T05:32:47;26.50;;;15.17;;
3873;SDS011;1952;50.872;6.692;2023-04-08T05:35:16;22.57;;;14.73;;
3873;SDS011;1952;50.872;6.692;2023-04-08T05:37:44;29.53;;;16.30;;
3873;SDS011;1952;50.872;6.692;2023-04-08T05:40:12;22.70;;;15.60;;
3873;SDS011;1952;50.872;6.692;2023-04-08T05:42:46;24.40;;;16.57;;
3873;SDS011;1952;50.872;6.692;2023-04-08T05:45:16;23.07;;;15.27;;
3873;SDS011;1952;50.872;6.692;2023-04-08T05:47:44;29.53;;;18.17;;
3873;SDS011;1952;50.872;6.692;2023-04-08T05:50:13;29.40;;;17.40;;
3873;SDS011;1952;50.872;6.692;2023-04-08T05:52:41;22.50;;;14.03;;
3873;SDS011;1952;50.872;6.692;2023-04-08T06:31:59;32.70;;;19.03;;
3873;SDS011;1952;50.872;6.692;2023-04-08T06:34:27;27.87;;;19.40;;
3873;SDS011;1952;50.872;6.692;2023-04-08T06:36:56;29.60;;;18.93;;
3873;SDS011;1952;50.872;6.692;2023-04-08T06:39:24;30.30;;;20.57;;
3873;SDS011;1952;50.872;6.692;2023-04-08T06:41:52;33.47;;;20.70;;
3873;SDS011;1952;50.872;6.692;2023-04-08T06:44:20;33.13;;;19.57;;
3873;SDS011;1952;50.872;6.692;2023-04-08T06:46:48;39.03;;;20.43;;
3873;SDS011;1952;50.872;6.692;2023-04-08T06:49:18;35.73;;;20.50;;
3873;SDS011;1952;50.872;6.692;2023-04-08T06:51:46;39.90;;;21.97;;
3873;SDS011;1952;50.872;6.692;2023-04-08T06:54:15;40.07;;;20.50;;
3873;SDS011;1952;50.872;6.692;2023-04-08T06:56:43;38.27;;;20.53;;
3873;SDS011;1952;50.872;6.692;2023-04-08T06:59:11;34.63;;;18.97;;
3873;SDS011;1952;50.872;6.692;2023-04-08T07:01:40;36.70;;;20.70;;
3873;SDS011;1952;50.872;6.692;2023-04-08T07:04:08;43.57;;;21.80;;
3873;SDS011;1952;50.872;6.692;2023-04-08T07:06:38;31.03;;;18.70;;
3873;SDS011;1952;50.872;6.692;2023-04-08T07:09:05;40.73;;;21.37;;
3873;SDS011;1952;50.872;6.692;2023-04-08T07:11:34;39.57;;;23.00;;
3873;SDS011;1952;50.872;6.692;2023-04-08T07:14:02;40.00;;;22.87;;
3873;SDS011;1952;50.872;6.692;2023-04-08T07:16:30;36.53;;;22.10;;
3873;SDS011;1952;50.872;6.692;2023-04-08T07:18:58;36.13;;;21.07;;
3873;SDS011;1952;50.872;6.692;2023-04-08T07:21:27;33.77;;;21.83;;
3873;SDS011;1952;50.872;6.692;2023-04-08T07:23:57;32.00;;;21.33;;
3873;SDS011;1952;50.872;6.692;2023-04-08T07:26:25;40.43;;;20.77;;
3873;SDS011;1952;50.872;6.692;2023-04-08T07:28:54;35.80;;;21.27;;
3873;SDS011;1952;50.872;6.692;2023-04-08T07:31:22;33.63;;;20.40;;
3873;SDS011;1952;50.872;6.692;2023-04-08T07:33:51;34.53;;;21.80;;
3873;SDS011;1952;50.872;6.692;2023-04-08T07:36:19;33.00;;;21.90;;
3873;SDS011;1952;50.872;6.692;2023-04-08T07:38:48;30.63;;;19.03;;
3873;SDS011;1952;50.872;6.692;2023-04-08T07:41:18;37.57;;;23.10;;
3873;SDS011;1952;50.872;6.692;2023-04-08T07:43:47;31.20;;;20.70;;
3873;SDS011;1952;50.872;6.692;2023-04-08T07:46:15;38.83;;;22.83;;
3873;SDS011;1952;50.872;6.692;2023-04-08T07:48:43;40.03;;;23.27;;
3873;SDS011;1952;50.872;6.692;2023-04-08T07:51:11;38.13;;;22.70;;
3873;SDS011;1952;50.872;6.692;2023-04-08T07:53:40;27.50;;;18.67;;
3873;SDS011;1952;50.872;6.692;2023-04-08T07:56:11;38.50;;;23.47;;
3873;SDS011;1952;50.872;6.692;2023-04-08T07:58:41;38.70;;;22.50;;
3873;SDS011;1952;50.872;6.692;2023-04-08T08:01:16;27.00;;;18.20;;
3873;SDS011;1952;50.872;6.692;2023-04-08T08:03:45;41.70;;;24.50;;
3873;SDS011;1952;50.872;6.692;2023-04-08T08:06:14;40.03;;;23.70;;
3873;SDS011;1952;50.872;6.692;2023-04-08T08:08:42;38.80;;;23.07;;
3873;SDS011;1952;50.872;6.692;2023-04-08T08:11:11;29.93;;;20.40;;
3873;SDS011;1952;50.872;6.692;2023-04-08T08:13:41;42.17;;;21.00;;
3873;SDS011;1952;50.872;6.692;2023-04-08T08:16:10;39.70;;;23.37;;
3873;SDS011;1952;50.872;6.692;2023-04-08T08:18:38;37.00;;;23.30;;
3873;SDS011;1952;50.872;6.692;2023-04-08T08:21:07;23.47;;;16.47;;
3873;SDS011;1952;50.872;6.692;2023-04-08T08:23:36;31.27;;;21.23;;
3873;SDS011;1952;50.872;6.692;2023-04-08T08:26:05;33.53;;;22.80;;
3873;SDS011;1952;50.872;6.692;2023-04-08T08:28:35;28.97;;;20.83;;
3873;SDS011;1952;50.872;6.692;2023-04-08T08:31:04;25.43;;;18.00;;
3873;SDS011;1952;50.872;6.692;2023-04-08T08:33:33;30.27;;;20.90;;
3873;SDS011;1952;50.872;6.692;2023-04-08T08:36:01;23.83;;;18.17;;
3873;SDS011;1952;50.872;6.692;2023-04-08T08:38:31;27.00;;;21.10;;
3873;SDS011;1952;50.872;6.692;2023-04-08T08:40:59;28.50;;;22.03;;
3873;SDS011;1952;50.872;6.692;2023-04-08T08:43:29;26.47;;;18.73;;
3873;SDS011;1952;50.872;6.692;2023-04-08T08:46:00;29.40;;;22.50;;
3873;SDS011;1952;50.872;6.692;2023-04-08T08:48:30;28.37;;;24.00;;
3873;SDS011;1952;50.872;6.692;2023-04-08T08:50:59;26.30;;;21.13;;
3873;SDS011;1952;50.872;6.692;2023-04-08T08:53:28;22.20;;;19.13;;
3873;SDS011;1952;50.872;6.692;2023-04-08T08:56:01;24.07;;;20.17;;
3873;SDS011;1952;50.872;6.692;2023-04-08T08:58:32;28.50;;;22.30;;
3873;SDS011;1952;50.872;6.692;2023-04-08T09:03:49;26.77;;;21.10;;
3873;SDS011;1952;50.872;6.692;2023-04-08T09:06:33;30.47;;;23.73;;
3873;SDS011;1952;50.872;6.692;2023-04-08T09:09:02;29.90;;;25.60;;
3873;SDS011;1952;50.872;6.692;2023-04-08T09:11:36;29.90;;;24.93;;
3873;SDS011;1952;50.872;6.692;2023-04-08T09:14:05;31.87;;;25.53;;
3873;SDS011;1952;50.872;6.692;2023-04-08T09:16:40;25.50;;;19.80;;
3873;SDS011;1952;50.872;6.692;2023-04-08T09:19:11;31.10;;;24.50;;
3873;SDS011;1952;50.872;6.692;2023-04-08T09:21:40;29.57;;;22.13;;
3873;SDS011;1952;50.872;6.692;2023-04-08T09:24:09;25.30;;;22.00;;
3873;SDS011;1952;50.872;6.692;2023-04-08T09:26:54;27.83;;;20.27;;
3873;SDS011;1952;50.872;6.692;2023-04-08T09:29:22;32.07;;;23.77;;
3873;SDS011;1952;50.872;6.692;2023-04-08T09:31:53;30.70;;;24.70;;
3873;SDS011;1952;50.872;6.692;2023-04-08T09:34:24;30.87;;;25.27;;
3873;SDS011;1952;50.872;6.692;2023-04-08T09:36:55;32.63;;;25.70;;
3873;SDS011;1952;50.872;6.692;2023-04-08T09:39:23;29.57;;;23.30;;
3873;SDS011;1952;50.872;6.692;2023-04-08T09:41:52;29.57;;;26.20;;
3873;SDS011;1952;50.872;6.692;2023-04-08T09:44:21;34.87;;;26.37;;
3873;SDS011;1952;50.872;6.692;2023-04-08T09:46:55;31.03;;;24.87;;
3873;SDS011;1952;50.872;6.692;2023-04-08T09:49:28;36.87;;;27.27;;
3873;SDS011;1952;50.872;6.692;2023-04-08T09:52:04;30.17;;;24.30;;
3873;SDS011;1952;50.872;6.692;2023-04-08T09:54:37;38.70;;;27.70;;
3873;SDS011;1952;50.872;6.692;2023-04-08T09:57:08;34.90;;;26.37;;
3873;SDS011;1952;50.872;6.692;2023-04-08T09:59:37;37.10;;;30.40;;
3873;SDS011;1952;50.872;6.692;2023-04-08T10:02:09;41.40;;;26.83;;
3873;SDS011;1952;50.872;6.692;2023-04-08T10:04:40;39.27;;;31.20;;
3873;SDS011;1952;50.872;6.692;2023-04-08T10:07:11;38.43;;;30.03;;
3873;SDS011;1952;50.872;6.692;2023-04-08T10:09:44;45.10;;;31.80;;
3873;SDS011;1952;50.872;6.692;2023-04-08T10:12:14;43.20;;;31.57;;
3873;SDS011;1952;50.872;6.692;2023-04-08T10:14:51;41.23;;;31.60;;
3873;SDS011;1952;50.872;6.692;2023-04-08T10:17:49;41.47;;;30.10;;
3873;SDS011;1952;50.872;6.692;2023-04-08T10:20:41;41.60;;;29.77;;
3873;SDS011;1952;50.872;6.692;2023-04-08T10:23:10;43.47;;;32.80;;
3873;SDS011;1952;50.872;6.692;2023-04-08T10:25:39;37.97;;;28.60;;
3873;SDS011;1952;50.872;6.692;2023-04-08T10:28:22;40.97;;;29.70;;
3873;SDS011;1952;50.872;6.692;2023-04-08T10:30:51;49.13;;;33.70;;
3873;SDS011;1952;50.872;6.692;2023-04-08T10:33:21;41.73;;;29.80;;
3873;SDS011;1952;50.872;6.692;2023-04-08T10:35:53;38.37;;;28.50;;
3873;SDS011;1952;50.872;6.692;2023-04-08T10:38:25;40.37;;;30.27;;
3873;SDS011;1952;50.872;6.692;2023-04-08T10:40:53;45.37;;;32.27;;
3873;SDS011;1952;50.872;6.692;2023-04-08T10:43:22;38.80;;;29.17;;
3873;SDS011;1952;50.872;6.692;2023-04-08T10:45:50;37.57;;;28.07;;
3873;SDS011;1952;50.872;6.692;2023-04-08T10:48:20;43.83;;;31.87;;
3873;SDS011;1952;50.872;6.692;2023-04-08T10:50:54;40.93;;;31.17;;
3873;SDS011;1952;50.872;6.692;2023-04-08T10:53:23;39.83;;;30.40;;
3873;SDS011;1952;50.872;6.692;2023-04-08T10:55:51;44.70;;;32.63;;
3873;SDS011;1952;50.872;6.692;2023-04-08T10:58:21;39.80;;;27.73;;
3873;SDS011;1952;50.872;6.692;2023-04-08T11:00:50;39.47;;;30.20;;
3873;SDS011;1952;50.872;6.692;2023-04-08T11:03:18;43.23;;;31.73;;
3873;SDS011;1952;50.872;6.692;2023-04-08T11:05:47;42.73;;;31.07;;
3873;SDS011;1952;50.872;6.692;2023-04-08T11:08:20;40.97;;;31.07;;
3873;SDS011;1952;50.872;6.692;2023-04-08T11:10:54;42.00;;;34.30;;
3873;SDS011;1952;50.872;6.692;2023-04-08T11:13:22;39.07;;;31.50;;
3873;SDS011;1952;50.872;6.692;2023-04-08T11:15:50;40.53;;;31.87;;
3873;SDS011;1952;50.872;6.692;2023-04-08T11:18:21;36.93;;;27.03;;
3873;SDS011;1952;50.872;6.692;2023-04-08T11:20:50;42.23;;;29.07;;
3873;SDS011;1952;50.872;6.692;2023-04-08T11:23:25;37.13;;;28.20;;
3873;SDS011;1952;50.872;6.692;2023-04-08T11:25:54;35.27;;;27.37;;
3873;SDS011;1952;50.872;6.692;2023-04-08T11:28:22;35.10;;;27.63;;
3873;SDS011;1952;50.872;6.692;2023-04-08T11:30:52;35.57;;;29.10;;
3873;SDS011;1952;50.872;6.692;2023-04-08T11:33:23;29.90;;;25.80;;
3873;SDS011;1952;50.872;6.692;2023-04-08T11:35:55;29.70;;;23.70;;
3873;SDS011;1952;50.872;6.692;2023-04-08T11:38:23;26.57;;;21.53;;
3873;SDS011;1952;50.872;6.692;2023-04-08T11:40:54;24.43;;;21.77;;
3873;SDS011;1952;50.872;6.692;2023-04-08T11:43:26;21.47;;;19.23;;
3873;SDS011;1952;50.872;6.692;2023-04-08T11:45:54;28.73;;;23.63;;
3873;SDS011;1952;50.872;6.692;2023-04-08T11:48:23;23.73;;;21.33;;
3873;SDS011;1952;50.872;6.692;2023-04-08T11:51:01;23.23;;;20.93;;
3873;SDS011;1952;50.872;6.692;2023-04-08T11:53:29;22.63;;;20.23;;
3873;SDS011;1952;50.872;6.692;2023-04-08T12:33:39;15.17;;;13.57;;
3873;SDS011;1952;50.872;6.692;2023-04-08T12:36:07;15.83;;;14.17;;
3873;SDS011;1952;50.872;6.692;2023-04-08T12:38:38;18.13;;;16.33;;
3873;SDS011;1952;50.872;6.692;2023-04-08T12:41:07;16.33;;;14.60;;
3873;SDS011;1952;50.872;6.692;2023-04-08T12:43:35;14.63;;;13.23;;
3873;SDS011;1952;50.872;6.692;2023-04-08T12:46:06;18.10;;;16.30;;
3873;SDS011;1952;50.872;6.692;2023-04-08T12:48:34;19.13;;;17.13;;
3873;SDS011;1952;50.872;6.692;2023-04-08T12:51:03;18.97;;;16.83;;
3873;SDS011;1952;50.872;6.692;2023-04-08T12:53:32;20.13;;;18.07;;
3873;SDS011;1952;50.872;6.692;2023-04-08T12:56:00;22.63;;;19.47;;
3873;SDS011;1952;50.872;6.692;2023-04-08T12:58:28;15.57;;;13.97;;
3873;SDS011;1952;50.872;6.692;2023-04-08T13:00:56;18.17;;;16.27;;
3873;SDS011;1952;50.872;6.692;2023-04-08T13:03:24;16.70;;;15.00;;
3873;SDS011;1952;50.872;6.692;2023-04-08T13:05:55;19.17;;;17.03;;
3873;SDS011;1952;50.872;6.692;2023-04-08T13:08:25;20.63;;;18.53;;
3873;SDS011;1952;50.872;6.692;2023-04-08T13:10:54;18.33;;;16.50;;
3873;SDS011;1952;50.872;6.692;2023-04-08T13:13:22;22.60;;;20.23;;
3873;SDS011;1952;50.872;6.692;2023-04-08T13:15:51;21.03;;;18.83;;
3873;SDS011;1952;50.872;6.692;2023-04-08T13:18:19;23.90;;;21.40;;
3873;SDS011;1952;50.872;6.692;2023-04-08T13:20:47;25.33;;;20.03;;
3873;SDS011;1952;50.872;6.692;2023-04-08T13:23:16;24.80;;;21.03;;
3873;SDS011;1952;50.872;6.692;2023-04-08T13:25:45;25.87;;;23.20;;
3873;SDS011;1952;50.872;6.692;2023-04-08T13:28:14;20.53;;;17.97;;
3873;SDS011;1952;50.872;6.692;2023-04-08T13:30:42;29.40;;;23.13;;
3873;SDS011;1952;50.872;6.692;2023-04-08T13:33:11;27.23;;;21.77;;
3873;SDS011;1952;50.872;6.692;2023-04-08T13:35:39;23.30;;;19.00;;
3873;SDS011;1952;50.872;6.692;2023-04-08T13:38:07;32.30;;;25.43;;
3873;SDS011;1952;50.872;6.692;2023-04-08T13:40:35;25.70;;;21.07;;
3873;SDS011;1952;50.872;6.692;2023-04-08T13:43:05;30.83;;;23.23;;
3873;SDS011;1952;50.872;6.692;2023-04-08T13:45:33;31.50;;;24.50;;
3873;SDS011;1952;50.872;6.692;2023-04-08T13:48:01;29.83;;;23.90;;
3873;SDS011;1952;50.872;6.692;2023-04-08T13:50:30;32.80;;;26.43;;
3873;SDS011;1952;50.872;6.692;2023-04-08T13:52:58;31.80;;;26.40;;
3873;SDS011;1952;50.872;6.692;2023-04-08T13:55:26;34.07;;;24.40;;
3873;SDS011;1952;50.872;6.692;2023-04-08T13:57:55;34.63;;;26.97;;
3873;SDS011;1952;50.872;6.692;2023-04-08T14:00:25;37.93;;;25.67;;
3873;SDS011;1952;50.872;6.692;2023-04-08T14:02:55;32.77;;;24.00;;
3873;SDS011;1952;50.872;6.692;2023-04-08T14:05:23;36.10;;;23.57;;
3873;SDS011;1952;50.872;6.692;2023-04-08T14:07:51;31.90;;;26.23;;
3873;SDS011;1952;50.872;6.692;2023-04-08T14:10:19;30.80;;;24.20;;
3873;SDS011;1952;50.872;6.692;2023-04-08T14:12:48;37.67;;;25.03;;
3873;SDS011;1952;50.872;6.692;2023-04-08T14:15:16;34.50;;;26.30;;
3873;SDS011;1952;50.872;6.692;2023-04-08T14:17:46;27.67;;;21.60;;
3873;SDS011;1952;50.872;6.692;2023-04-08T14:20:15;32.23;;;26.47;;
3873;SDS011;1952;50.872;6.692;2023-04-08T14:22:43;34.40;;;26.60;;
3873;SDS011;1952;50.872;6.692;2023-04-08T14:25:11;35.87;;;28.03;;
3873;SDS011;1952;50.872;6.692;2023-04-08T14:27:39;27.83;;;22.13;;
3873;SDS011;1952;50.872;6.692;2023-04-08T14:30:23;32.03;;;24.67;;
3873;SDS011;1952;50.872;6.692;2023-04-08T14:32:53;29.53;;;23.27;;
3873;SDS011;1952;50.872;6.692;2023-04-08T14:35:24;24.27;;;21.50;;
3873;SDS011;1952;50.872;6.692;2023-04-08T14:37:52;20.33;;;17.97;;
3873;SDS011;1952;50.872;6.692;2023-04-08T14:40:21;25.30;;;20.03;;
3873;SDS011;1952;50.872;6.692;2023-04-08T14:42:50;20.83;;;16.57;;
3873;SDS011;1952;50.872;6.692;2023-04-08T14:45:18;23.40;;;15.00;;
3873;SDS011;1952;50.872;6.692;2023-04-08T14:47:47;15.70;;;14.00;;
3873;SDS011;1952;50.872;6.692;2023-04-08T14:50:16;13.20;;;11.33;;
3873;SDS011;1952;50.872;6.692;2023-04-08T14:52:45;7.57;;;6.83;;
3873;SDS011;1952;50.872;6.692;2023-04-08T14:55:14;8.00;;;7.20;;
3873;SDS011;1952;50.872;6.692;2023-04-08T14:57:42;9.33;;;7.20;;
3873;SDS011;1952;50.872;6.692;2023-04-08T15:00:11;7.57;;;6.77;;
3873;SDS011;1952;50.872;6.692;2023-04-08T15:02:39;8.37;;;7.57;;
3873;SDS011;1952;50.872;6.692;2023-04-08T15:05:08;9.07;;;8.17;;
3873;SDS011;1952;50.872;6.692;2023-04-08T15:07:40;8.20;;;7.40;;
3873;SDS011;1952;50.872;6.692;2023-04-08T15:10:09;8.50;;;7.20;;
3873;SDS011;1952;50.872;6.692;2023-04-08T15:12:37;9.93;;;9.03;;
3873;SDS011;1952;50.872;6.692;2023-04-08T15:15:06;9.70;;;8.60;;
3873;SDS011;1952;50.872;6.692;2023-04-08T15:17:35;9.50;;;8.53;;
3873;SDS011;1952;50.872;6.692;2023-04-08T15:20:03;11.17;;;8.63;;
3873;SDS011;1952;50.872;6.692;2023-04-08T15:22:32;9.47;;;8.57;;
3873;SDS011;1952;50.872;6.692;2023-04-08T15:25:03;11.27;;;10.07;;
3873;SDS011;1952;50.872;6.692;2023-04-08T15:27:32;10.53;;;9.63;;
3873;SDS011;1952;50.872;6.692;2023-04-08T15:30:01;13.90;;;12.43;;
3873;SDS011;1952;50.872;6.692;2023-04-08T15:32:30;11.70;;;10.50;;
3873;SDS011;1952;50.872;6.692;2023-04-08T15:34:58;12.60;;;10.73;;
3873;SDS011;1952;50.872;6.692;2023-04-08T15:37:28;10.67;;;9.67;;
3873;SDS011;1952;50.872;6.692;2023-04-08T15:40:11;9.37;;;8.47;;
3873;SDS011;1952;50.872;6.692;2023-04-08T15:42:40;11.50;;;10.30;;
3873;SDS011;1952;50.872;6.692;2023-04-08T15:45:10;10.67;;;9.57;;
3873;SDS011;1952;50.872;6.692;2023-04-08T15:47:39;12.57;;;9.93;;
3873;SDS011;1952;50.872;6.692;2023-04-08T15:50:08;10.93;;;9.90;;
3873;SDS011;1952;50.872;6.692;2023-04-08T15:52:38;13.40;;;9.43;;
3873;SDS011;1952;50.872;6.692;2023-04-08T15:55:12;12.07;;;10.87;;
3873;SDS011;1952;50.872;6.692;2023-04-08T15:57:49;12.07;;;9.30;;
3873;SDS011;1952;50.872;6.692;2023-04-08T16:00:23;12.33;;;11.00;;
3873;SDS011;1952;50.872;6.692;2023-04-08T16:02:52;10.70;;;9.70;;
3873;SDS011;1952;50.872;6.692;2023-04-08T16:05:22;11.90;;;10.70;;
3873;SDS011;1952;50.872;6.692;2023-04-08T16:08:01;11.50;;;10.40;;
3873;SDS011;1952;50.872;6.692;2023-04-08T16:10:32;11.53;;;10.33;;
3873;SDS011;1952;50.872;6.692;2023-04-08T16:13:01;12.03;;;10.70;;
3873;SDS011;1952;50.872;6.692;2023-04-08T16:15:30;13.33;;;10.73;;
3873;SDS011;1952;50.872;6.692;2023-04-08T16:17:59;12.70;;;10.97;;
3873;SDS011;1952;50.872;6.692;2023-04-08T16:20:29;13.03;;;11.77;;
3873;SDS011;1952;50.872;6.692;2023-04-08T16:23:00;12.00;;;10.80;;
3873;SDS011;1952;50.872;6.692;2023-04-08T16:25:29;17.80;;;12.40;;
3873;SDS011;1952;50.872;6.692;2023-04-08T16:28:06;12.00;;;10.80;;
3873;SDS011;1952;50.872;6.692;2023-04-08T16:30:35;13.87;;;12.47;;
3873;SDS011;1952;50.872;6.692;2023-04-08T16:33:06;14.13;;;12.67;;
3873;SDS011;1952;50.872;6.692;2023-04-08T16:35:35;16.30;;;12.07;;
3873;SDS011;1952;50.872;6.692;2023-04-08T16:38:03;13.97;;;12.23;;
3873;SDS011;1952;50.872;6.692;2023-04-08T16:40:34;13.67;;;12.37;;
3873;SDS011;1952;50.872;6.692;2023-04-08T16:43:17;15.90;;;13.87;;
3873;SDS011;1952;50.872;6.692;2023-04-08T16:45:46;12.90;;;11.40;;
3873;SDS011;1952;50.872;6.692;2023-04-08T16:48:15;13.17;;;11.70;;
3873;SDS011;1952;50.872;6.692;2023-04-08T16:50:44;19.37;;;14.40;;